Time;durP1;ratioP1;P1;durP2;ratioP2;P2;SDS_P1;SDS_P2;PMS_P1;PMS_P2;Temp;Humidity;BMP_temperature;BMP_pressure;BME280_temperature;BME280_humidity;BME280_pressure;Samples;Min_cycle;Max_cycle;Signal;HPM_P1;HPM_P2
2023/03/22 00:02:10;;;;;;;35.25;24.15;;;;;;;9.83;79.28;96049.34;5092990;28;20457;-62
2023/03/22 00:04:37;;;;;;;36.28;22.67;;;;;;;9.84;79.06;96045.81;5093164;28;20044;-62
2023/03/22 00:07:04;;;;;;;38.40;24.13;;;;;;;9.80;79.25;96054.69;5092985;28;20041;-62
2023/03/22 00:09:31;;;;;;;38.88;24.75;;;;;;;9.80;79.19;96062.53;5093143;28;20080;-62
2023/03/22 00:12:00;;;;;;;38.72;24.85;;;;;;;9.78;78.91;96064.38;5093024;28;20067;-62
2023/03/22 00:14:28;;;;;;;40.30;25.42;;;;;;;9.70;79.44;96054.25;5093389;28;20101;-62
2023/03/22 00:16:55;;;;;;;39.65;24.02;;;;;;;9.72;80.09;96058.47;5097066;28;20081;-62
2023/03/22 00:19:22;;;;;;;34.20;23.45;;;;;;;9.75;79.95;96059.28;5096992;28;20048;-62
2023/03/22 00:21:51;;;;;;;40.95;23.75;;;;;;;9.73;80.18;96062.78;5096951;28;20067;-62
2023/03/22 00:24:19;;;;;;;36.33;23.15;;;;;;;9.70;79.95;96062.91;5096837;28;20512;-62
2023/03/22 00:26:49;;;;;;;42.28;24.52;;;;;;;9.67;79.94;96067.44;5097015;28;20076;-62
2023/03/22 00:29:21;;;;;;;40.47;24.98;;;;;;;9.64;80.46;96070.16;5096896;28;20040;-62
2023/03/22 00:31:50;;;;;;;42.28;23.00;;;;;;;9.61;80.49;96073.75;5096789;28;20055;-62
2023/03/22 00:34:18;;;;;;;41.63;22.05;;;;;;;9.32;79.48;96068.81;5096701;28;20486;-62
2023/03/22 00:36:45;;;;;;;41.95;21.20;;;;;;;9.14;79.63;96070.41;5096485;28;20056;-61
2023/03/22 00:39:12;;;;;;;40.50;20.65;;;;;;;8.95;79.22;96073.75;5096551;28;20383;-61
2023/03/22 00:41:39;;;;;;;39.38;19.65;;;;;;;8.86;80.14;96068.88;5096613;28;20051;-61
2023/03/22 00:44:06;;;;;;;35.55;20.73;;;;;;;8.75;81.40;96061.47;5096557;28;20054;-61
2023/03/22 00:46:34;;;;;;;34.58;20.70;;;;;;;8.66;81.20;96061.81;5096780;28;20076;-61
2023/03/22 00:49:01;;;;;;;39.47;21.88;;;;;;;8.64;82.43;96061.03;5096373;28;20135;-61
2023/03/22 00:51:28;;;;;;;43.88;22.67;;;;;;;8.64;82.78;96066.25;5096315;28;20091;-61
2023/03/22 00:53:56;;;;;;;36.13;22.17;;;;;;;8.61;82.36;96068.97;5096275;28;20401;-61
2023/03/22 00:56:24;;;;;;;49.08;23.92;;;;;;;8.52;82.75;96070.13;5096273;28;20055;-61
2023/03/22 00:58:51;;;;;;;42.17;24.92;;;;;;;8.40;83.56;96072.28;5096238;28;20063;-61
2023/03/22 01:01:18;;;;;;;45.00;25.40;;;;;;;8.43;83.75;96073.94;5096063;28;20052;-62
2023/03/22 01:03:48;;;;;;;38.47;24.08;;;;;;;8.47;84.48;96076.38;5096175;28;20052;-62
2023/03/22 01:06:16;;;;;;;38.22;23.25;;;;;;;8.43;83.97;96069.56;5096034;28;20052;-62
2023/03/22 01:08:43;;;;;;;40.92;24.67;;;;;;;8.53;83.81;96074.44;5096055;28;20055;-61
2023/03/22 01:11:12;;;;;;;39.78;21.48;;;;;;;8.58;83.13;96075.16;5096302;28;20054;-62
2023/03/22 01:13:40;;;;;;;40.00;23.88;;;;;;;8.64;82.92;96074.91;5096008;28;20097;-62
2023/03/22 01:16:09;;;;;;;45.20;24.73;;;;;;;8.70;83.88;96068.63;5096013;28;20436;-62
2023/03/22 01:18:37;;;;;;;43.13;25.30;;;;;;;8.67;83.39;96066.97;5095898;28;20098;-62
2023/03/22 01:21:06;;;;;;;46.60;25.13;;;;;;;8.72;83.97;96072.00;5096019;28;20056;-62
2023/03/22 01:23:33;;;;;;;42.08;26.00;;;;;;;8.68;83.80;96062.63;5095751;28;20490;-62
2023/03/22 01:26:01;;;;;;;46.38;26.55;;;;;;;8.61;84.07;96063.75;5095231;28;20113;-62
2023/03/22 01:28:29;;;;;;;35.20;24.35;;;;;;;8.54;84.63;96061.38;5095555;28;20131;-62
2023/03/22 01:30:57;;;;;;;44.50;27.02;;;;;;;8.49;84.45;96065.03;5095703;28;20048;-62
2023/03/22 01:33:24;;;;;;;38.53;25.80;;;;;;;8.52;84.82;96062.31;5095513;28;20044;-62
2023/03/22 01:35:51;;;;;;;40.22;27.45;;;;;;;8.49;84.93;96057.22;5095412;28;20083;-62
2023/03/22 01:38:20;;;;;;;40.85;25.27;;;;;;;8.44;84.10;96057.38;5095852;28;20048;-62
2023/03/22 01:40:47;;;;;;;41.25;24.83;;;;;;;8.43;84.22;96058.31;5095379;28;20566;-62
2023/03/22 01:43:16;;;;;;;40.63;23.25;;;;;;;8.40;84.07;96053.19;5095509;28;20123;-62
2023/03/22 01:45:45;;;;;;;39.35;23.10;;;;;;;8.40;84.27;96047.97;5095517;28;20482;-62
2023/03/22 01:48:18;;;;;;;42.03;23.85;;;;;;;8.41;84.76;96036.66;5095379;28;20127;-62
2023/03/22 01:50:54;;;;;;;44.20;24.70;;;;;;;8.36;84.53;96041.19;5095139;28;20076;-62
2023/03/22 01:53:25;;;;;;;42.20;23.38;;;;;;;8.36;84.00;96038.59;5095113;28;20124;-62
2023/03/22 01:55:55;;;;;;;42.65;23.58;;;;;;;8.40;84.05;96037.56;5095011;28;20044;-62
2023/03/22 01:58:22;;;;;;;39.05;22.42;;;;;;;8.39;83.77;96036.69;5095246;28;20051;-62
2023/03/22 02:00:51;;;;;;;35.72;22.67;;;;;;;8.38;83.66;96029.81;5095166;28;20055;-62
2023/03/22 02:03:25;;;;;;;38.45;24.52;;;;;;;8.42;84.66;96031.38;5095088;28;20554;-62
2023/03/22 02:05:54;;;;;;;41.22;23.42;;;;;;;8.44;83.83;96028.72;5094984;28;20122;-62
2023/03/22 02:08:23;;;;;;;44.97;22.88;;;;;;;8.43;83.62;96034.84;5094924;28;20052;-62
2023/03/22 02:10:51;;;;;;;27.88;16.85;;;;;;;8.38;83.55;96034.16;5094858;28;20098;-62
2023/03/22 02:13:41;;;;;;;46.83;25.58;;;;;;;8.35;84.28;96035.13;5094862;28;20137;-62
2023/03/22 02:16:22;;;;;;;26.77;17.80;;;;;;;8.37;84.20;96027.25;5094411;28;20659;-61
2023/03/22 02:19:04;;;;;;;34.58;22.90;;;;;;;8.38;84.21;96028.94;5094906;28;20138;-62
2023/03/22 02:21:54;;;;;;;44.75;23.17;;;;;;;8.40;84.36;96030.56;5094625;28;20437;-62
2023/03/22 02:24:45;;;;;;;44.30;23.10;;;;;;;8.42;84.24;96033.97;5094645;28;20097;-62
2023/03/22 02:27:39;;;;;;;38.90;22.88;;;;;;;8.33;83.87;96019.53;5094597;28;20040;-62
2023/03/22 02:30:29;;;;;;;41.58;23.05;;;;;;;8.38;84.31;96026.34;5094518;28;20395;-62
2023/03/22 02:33:25;;;;;;;26.40;15.77;;;;;;;8.37;84.20;96028.06;5091296;28;20135;-62
2023/03/22 02:36:06;;;;;;;37.58;22.42;;;;;;;8.33;84.67;96029.09;5094295;28;20075;-62
2023/03/22 02:39:15;;;;;;;47.85;24.02;;;;;;;8.34;85.06;96030.81;5094228;28;20052;-62
2023/03/22 02:42:02;;;;;;;35.35;21.17;;;;;;;8.29;85.00;96033.59;5094237;28;20058;-61
2023/03/22 02:44:40;;;;;;;33.88;20.75;;;;;;;8.32;84.71;96025.66;5094159;28;20057;-61
2023/03/22 02:47:12;;;;;;;43.90;23.55;;;;;;;8.37;85.46;96027.25;5094422;28;20059;-61
2023/03/22 02:49:46;;;;;;;42.75;22.77;;;;;;;8.40;85.27;96030.56;5094031;28;20093;-62
2023/03/22 02:52:19;;;;;;;35.78;22.48;;;;;;;8.45;85.23;96023.44;5094036;28;20048;-61
2023/03/22 02:54:55;;;;;;;40.40;21.33;;;;;;;8.51;85.12;96027.56;5094055;28;20052;-62
2023/03/22 02:57:28;;;;;;;36.42;23.20;;;;;;;8.50;84.99;96031.09;5094046;28;20047;-62
2023/03/22 02:59:57;;;;;;;34.40;21.38;;;;;;;8.52;83.97;96029.25;5093860;28;20048;-62
2023/03/22 03:02:26;;;;;;;35.30;23.05;;;;;;;8.50;84.25;96033.69;5093846;28;20051;-62
2023/03/22 03:04:55;;;;;;;40.63;23.23;;;;;;;8.55;84.33;96023.13;5093846;28;20478;-62
2023/03/22 03:07:27;;;;;;;39.67;23.63;;;;;;;8.55;84.38;96015.31;5093827;28;20048;-62
2023/03/22 03:09:56;;;;;;;35.97;22.20;;;;;;;8.57;84.63;96021.28;5093862;28;20499;-62
2023/03/22 03:12:25;;;;;;;38.50;22.58;;;;;;;8.56;84.50;96022.22;5093884;28;20060;-61
2023/03/22 03:14:53;;;;;;;40.47;21.63;;;;;;;8.52;84.51;96020.59;5093856;28;20098;-61
2023/03/22 03:17:30;;;;;;;34.70;20.90;;;;;;;8.45;84.72;96020.84;5093685;28;20413;-61
2023/03/22 03:20:17;;;;;;;34.75;18.95;;;;;;;8.42;85.31;96026.16;5093739;28;20452;-61
2023/03/22 03:22:57;;;;;;;28.67;18.98;;;;;;;8.44;85.91;96008.72;5093590;28;20048;-61
2023/03/22 03:25:42;;;;;;;18.35;13.93;;;;;;;8.44;86.07;96008.72;5094125;28;20062;-62
2023/03/22 03:28:17;;;;;;;26.80;17.00;;;;;;;8.38;85.72;96000.28;5093482;28;20048;-61
2023/03/22 03:30:55;;;;;;;28.25;18.77;;;;;;;8.27;85.75;95996.31;5093482;28;20450;-62
2023/03/22 03:33:27;;;;;;;35.63;19.15;;;;;;;8.19;86.01;95996.59;5093444;28;20048;-61
2023/03/22 03:36:00;;;;;;;38.35;20.08;;;;;;;8.15;86.53;96010.66;5093314;28;20055;-62
2023/03/22 03:38:30;;;;;;;33.45;20.13;;;;;;;8.17;86.54;96007.97;5093446;28;20048;-61
2023/03/22 03:41:03;;;;;;;29.13;19.85;;;;;;;8.14;87.06;96015.91;5093326;28;20105;-62
2023/03/22 03:43:32;;;;;;;34.63;20.30;;;;;;;8.13;87.34;96009.84;5093277;28;20048;-61
2023/03/22 03:46:00;;;;;;;30.50;21.50;;;;;;;8.16;87.45;96022.75;5093113;28;20051;-62
2023/03/22 03:48:30;;;;;;;29.25;19.88;;;;;;;8.12;87.67;96015.13;5093311;28;20052;-61
2023/03/22 03:51:00;;;;;;;28.00;15.32;;;;;;;8.15;87.90;96020.19;5092453;28;20052;-61
2023/03/22 03:53:27;;;;;;;32.20;20.85;;;;;;;8.19;88.01;96016.59;5093276;28;20040;-61
2023/03/22 03:55:55;;;;;;;33.47;20.73;;;;;;;8.25;87.59;96016.34;5093038;28;20056;-62
2023/03/22 03:58:23;;;;;;;29.52;18.45;;;;;;;8.28;87.53;96011.03;5092944;28;20098;-61
2023/03/22 04:00:51;;;;;;;38.30;18.02;;;;;;;8.30;87.15;96017.03;5092997;28;20048;-61
2023/03/22 04:03:19;;;;;;;34.40;18.15;;;;;;;8.29;86.69;96017.97;5093320;28;20051;-61
2023/03/22 04:05:47;;;;;;;28.70;17.08;;;;;;;8.27;86.95;96017.16;5093058;28;20048;-61
2023/03/22 04:08:14;;;;;;;29.25;16.73;;;;;;;8.29;86.83;96022.31;5093009;28;20453;-61
2023/03/22 04:10:41;;;;;;;21.80;16.60;;;;;;;8.30;86.58;96024.88;5092977;28;20561;-61
2023/03/22 04:13:08;;;;;;;26.33;16.92;;;;;;;8.32;86.44;96023.06;5092987;28;20059;-61
2023/03/22 04:15:36;;;;;;;31.13;16.80;;;;;;;8.32;86.06;96030.88;5092734;28;20055;-61
2023/03/22 04:18:04;;;;;;;25.45;16.50;;;;;;;8.35;86.24;96032.50;5092818;28;20131;-61
2023/03/22 04:20:31;;;;;;;24.73;16.42;;;;;;;8.36;86.09;96031.59;5093037;28;20044;-62
2023/03/22 04:22:59;;;;;;;21.40;15.43;;;;;;;8.39;86.22;96041.91;5092845;28;20405;-61
2023/03/22 04:25:29;;;;;;;22.73;15.70;;;;;;;8.37;85.99;96041.09;5092864;28;20142;-62
2023/03/22 04:27:56;;;;;;;24.58;17.40;;;;;;;8.36;86.28;96036.81;5092772;28;20051;-61
2023/03/22 04:30:26;;;;;;;24.35;15.88;;;;;;;8.36;86.27;96034.22;5092767;28;20097;-61
2023/03/22 04:32:55;;;;;;;18.92;14.85;;;;;;;8.42;86.14;96030.50;5092809;28;20171;-61
2023/03/22 04:35:22;;;;;;;21.15;14.68;;;;;;;8.41;86.06;96034.91;5092650;28;20040;-61
2023/03/22 04:37:50;;;;;;;22.27;14.88;;;;;;;8.38;85.59;96039.38;5092902;28;20052;-61
2023/03/22 04:40:19;;;;;;;22.05;14.55;;;;;;;8.32;85.50;96046.53;5092630;28;20052;-61
2023/03/22 04:42:46;;;;;;;23.83;14.40;;;;;;;8.31;85.38;96047.41;5092739;28;20048;-61
2023/03/22 04:45:14;;;;;;;27.67;14.65;;;;;;;8.29;85.46;96053.59;5092681;28;20054;-61
2023/03/22 04:47:41;;;;;;;28.90;16.08;;;;;;;8.27;85.46;96060.59;5092657;28;20116;-61
2023/03/22 04:50:10;;;;;;;22.35;15.35;;;;;;;8.20;85.60;96060.84;5092566;28;20498;-61
2023/03/22 04:52:39;;;;;;;20.88;15.38;;;;;;;8.27;86.42;96073.63;5092733;28;20072;-61
2023/03/22 04:55:07;;;;;;;21.65;14.90;;;;;;;8.31;86.46;96068.25;5092622;28;20054;-62
2023/03/22 04:57:35;;;;;;;19.50;13.20;;;;;;;8.34;86.32;96078.56;5092647;28;20070;-61
2023/03/22 05:00:07;;;;;;;20.38;13.20;;;;;;;8.29;85.83;96090.94;5092655;28;20048;-61
2023/03/22 05:02:36;;;;;;;21.15;13.82;;;;;;;8.19;86.13;96087.78;5094822;28;20135;-62
2023/03/22 05:05:03;;;;;;;23.27;14.38;;;;;;;8.11;86.50;96091.56;5096382;28;20048;-61
2023/03/22 05:07:32;;;;;;;30.10;18.40;;;;;;;8.13;87.04;96092.38;5096311;28;20056;-62
2023/03/22 05:09:59;;;;;;;25.98;18.33;;;;;;;8.14;87.19;96092.31;5096052;28;20564;-61
2023/03/22 05:12:27;;;;;;;32.72;18.25;;;;;;;8.21;87.61;96098.16;5096342;28;20146;-61
2023/03/22 05:14:55;;;;;;;27.00;18.13;;;;;;;8.25;88.11;96098.91;5096195;28;20050;-61
2023/03/22 05:17:23;;;;;;;29.45;17.75;;;;;;;8.30;88.12;96107.41;5095991;28;20044;-61
2023/03/22 05:19:51;;;;;;;23.80;16.65;;;;;;;8.34;88.33;96096.81;5095770;28;20059;-62
2023/03/22 05:22:21;;;;;;;24.15;17.77;;;;;;;8.40;87.87;96102.72;5095831;28;20078;-62
2023/03/22 05:24:51;;;;;;;28.02;16.42;;;;;;;8.39;88.05;96095.78;5095779;28;20050;-62
2023/03/22 05:27:29;;;;;;;26.10;16.63;;;;;;;8.42;88.41;96099.16;5095691;28;20110;-62
2023/03/22 05:29:57;;;;;;;30.13;16.60;;;;;;;8.49;87.86;96107.56;5095723;28;20064;-61
2023/03/22 05:32:28;;;;;;;29.67;16.58;;;;;;;8.43;87.21;96107.81;5095619;28;20044;-61
2023/03/22 05:34:55;;;;;;;22.58;15.80;;;;;;;8.39;87.63;96111.41;5095498;28;20044;-61
2023/03/22 05:37:23;;;;;;;23.92;16.80;;;;;;;8.37;88.09;96116.69;5095348;28;20063;-61
2023/03/22 05:39:52;;;;;;;25.73;16.13;;;;;;;8.42;88.48;96113.91;5095225;28;20052;-62
2023/03/22 05:42:24;;;;;;;24.65;16.90;;;;;;;8.47;88.58;96118.09;5095385;28;20048;-61
2023/03/22 05:44:54;;;;;;;25.52;16.65;;;;;;;8.49;89.22;96115.41;5095338;28;20054;-62
2023/03/22 05:47:25;;;;;;;28.05;17.15;;;;;;;8.58;89.12;96114.28;5095271;28;20044;-62
2023/03/22 05:49:57;;;;;;;33.38;20.77;;;;;;;8.67;88.43;96121.72;5095208;28;20056;-61
2023/03/22 05:52:25;;;;;;;24.88;16.70;;;;;;;8.75;89.09;96113.63;5095245;28;20055;-62
2023/03/22 05:54:54;;;;;;;23.25;17.42;;;;;;;8.78;89.13;96113.50;5095198;28;20490;-62
2023/03/22 05:57:21;;;;;;;28.08;17.38;;;;;;;8.75;89.34;96123.19;5095317;28;20554;-62
2023/03/22 05:59:54;;;;;;;29.02;17.05;;;;;;;8.80;89.60;96129.97;5095096;28;20052;-61
2023/03/22 06:02:22;;;;;;;27.67;17.83;;;;;;;8.90;89.39;96143.50;5094873;28;20452;-61
2023/03/22 06:04:51;;;;;;;33.55;20.00;;;;;;;8.98;88.85;96141.44;5095115;28;20055;-61
2023/03/22 06:07:19;;;;;;;32.47;21.83;;;;;;;9.04;88.77;96134.28;5094799;28;20055;-61
2023/03/22 06:09:48;;;;;;;40.05;22.60;;;;;;;9.10;88.50;96137.50;5094772;28;20432;-61
2023/03/22 06:12:23;;;;;;;37.08;22.65;;;;;;;9.08;88.46;96149.78;5094405;28;20457;-62
2023/03/22 06:14:55;;;;;;;37.15;22.45;;;;;;;9.05;88.53;96149.91;5094769;28;20043;-62
2023/03/22 06:17:24;;;;;;;38.20;23.88;;;;;;;8.97;88.59;96157.16;5094756;28;20516;-61
2023/03/22 06:19:53;;;;;;;28.35;22.13;;;;;;;9.00;88.91;96157.03;5094742;28;20052;-61
2023/03/22 06:22:20;;;;;;;39.15;23.30;;;;;;;9.05;88.88;96162.94;5094534;28;20048;-61
2023/03/22 06:24:48;;;;;;;37.10;23.95;;;;;;;9.01;88.50;96163.97;5094625;28;20079;-62
2023/03/22 06:27:17;;;;;;;68.22;39.45;;;;;;;9.03;88.72;96167.34;5094598;28;20109;-62
2023/03/22 06:29:48;;;;;;;52.03;29.08;;;;;;;9.07;88.56;96165.50;5094638;28;20098;-61
2023/03/22 06:32:15;;;;;;;50.20;27.98;;;;;;;9.15;88.11;96167.81;5094572;28;20136;-62
2023/03/22 06:34:42;;;;;;;40.05;28.63;;;;;;;9.19;87.96;96164.19;5094530;28;20048;-61
2023/03/22 06:37:10;;;;;;;46.38;30.05;;;;;;;9.27;87.61;96166.50;5094306;28;20395;-61
2023/03/22 06:39:37;;;;;;;47.25;30.52;;;;;;;9.29;87.79;96175.09;5094518;28;20101;-62
2023/03/22 06:42:04;;;;;;;45.30;26.77;;;;;;;9.33;87.25;96174.94;5094570;28;20060;-62
2023/03/22 06:44:33;;;;;;;40.75;27.80;;;;;;;9.40;87.09;96174.69;5094385;28;20053;-62
2023/03/22 06:47:00;;;;;;;48.47;30.70;;;;;;;9.45;86.77;96172.75;5094221;28;20055;-62
2023/03/22 06:49:28;;;;;;;46.13;29.13;;;;;;;9.55;87.13;96173.22;5094313;28;20489;-62
2023/03/22 06:51:55;;;;;;;46.35;28.42;;;;;;;9.57;86.72;96167.03;5094049;28;20477;-61
2023/03/22 06:54:22;;;;;;;38.35;28.33;;;;;;;9.61;86.83;96175.59;5094140;28;20040;-61
2023/03/22 06:56:50;;;;;;;40.08;24.95;;;;;;;9.60;86.05;96172.13;5093932;28;20094;-61
2023/03/22 06:59:17;;;;;;;42.05;25.30;;;;;;;9.63;85.95;96176.38;5094067;28;20048;-61
2023/03/22 07:01:47;;;;;;;34.45;25.85;;;;;;;9.64;85.50;96185.06;5094000;28;20040;-61
2023/03/22 07:04:14;;;;;;;40.40;24.73;;;;;;;9.67;86.62;96183.19;5094068;28;20086;-61
2023/03/22 07:06:41;;;;;;;32.63;22.92;;;;;;;9.77;86.98;96188.91;5093818;28;20131;-61
2023/03/22 07:09:09;;;;;;;44.90;28.17;;;;;;;9.76;87.55;96187.19;5093725;28;20048;-61
2023/03/22 07:11:36;;;;;;;45.25;28.73;;;;;;;9.82;87.70;96194.75;5093812;28;20054;-61
2023/03/22 07:14:03;;;;;;;56.10;35.00;;;;;;;9.68;87.10;96184.03;5094119;28;20480;-61
2023/03/22 07:16:30;;;;;;;67.22;43.95;;;;;;;9.58;87.15;96194.00;5093658;28;20098;-61
2023/03/22 07:18:59;;;;;;;74.57;45.17;;;;;;;9.33;87.86;96208.84;5093895;28;20048;-62
2023/03/22 07:21:27;;;;;;;77.28;49.60;;;;;;;9.21;87.79;96214.53;5093702;28;20051;-61
2023/03/22 07:23:54;;;;;;;83.82;50.55;;;;;;;9.21;88.09;96214.53;5093155;28;20052;-61
2023/03/22 07:26:21;;;;;;;85.85;49.95;;;;;;;9.32;88.92;96219.34;5093273;28;20075;-61
2023/03/22 07:28:48;;;;;;;83.93;51.03;;;;;;;9.45;88.85;96217.16;5093775;28;20398;-61
2023/03/22 07:31:15;;;;;;;92.00;52.88;;;;;;;9.47;88.34;96216.16;5093495;28;20105;-62
2023/03/22 07:33:42;;;;;;;85.30;50.10;;;;;;;9.39;87.31;96225.22;5093671;28;20048;-61
2023/03/22 07:36:12;;;;;;;83.90;49.90;;;;;;;9.28;87.37;96233.44;5093356;28;20044;-61
2023/03/22 07:38:39;;;;;;;80.78;47.45;;;;;;;9.34;87.51;96241.03;5093338;28;20139;-61
2023/03/22 07:41:07;;;;;;;81.47;49.15;;;;;;;9.46;87.31;96237.94;5093266;28;20044;-61
2023/03/22 07:43:34;;;;;;;80.45;47.92;;;;;;;9.37;87.35;96232.25;5093300;28;20059;-61
2023/03/22 07:46:01;;;;;;;79.07;47.78;;;;;;;9.39;87.00;96241.69;5093585;28;20052;-61
2023/03/22 07:48:30;;;;;;;78.25;47.38;;;;;;;9.43;86.50;96247.66;5093384;28;20052;-61
2023/03/22 07:51:01;;;;;;;78.05;47.25;;;;;;;9.53;86.81;96242.94;5093048;28;20139;-61
2023/03/22 07:53:30;;;;;;;81.78;45.83;;;;;;;9.63;86.67;96241.66;5093397;28;20059;-61
2023/03/22 07:55:57;;;;;;;87.72;46.67;;;;;;;9.70;85.89;96240.50;5093219;28;20485;-61
2023/03/22 07:58:24;;;;;;;77.82;46.50;;;;;;;9.68;85.60;96244.97;5093092;28;20127;-61
2023/03/22 08:00:51;;;;;;;87.47;48.10;;;;;;;9.70;85.35;96243.13;5093190;28;20402;-62
2023/03/22 08:03:20;;;;;;;78.07;46.97;;;;;;;9.75;84.81;96245.56;5093082;28;20090;-62
2023/03/22 08:05:48;;;;;;;79.63;48.08;;;;;;;9.76;84.92;96243.81;5093314;28;20482;-61
2023/03/22 08:08:15;;;;;;;78.25;47.58;;;;;;;9.83;84.92;96253.97;5093001;28;20071;-61
2023/03/22 08:10:49;;;;;;;81.28;49.72;;;;;;;9.88;85.15;96240.72;5092975;28;20490;-61
2023/03/22 08:13:16;;;;;;;81.28;46.72;;;;;;;9.95;86.18;96238.69;5092949;28;20067;-61
2023/03/22 08:15:43;;;;;;;86.15;49.90;;;;;;;10.00;86.22;96231.53;5092935;28;20113;-61
2023/03/22 08:18:10;;;;;;;82.50;47.30;;;;;;;10.21;86.08;96236.78;5092836;28;20125;-61
2023/03/22 08:20:40;;;;;;;72.15;44.88;;;;;;;10.23;84.83;96230.56;5092996;28;20139;-61
2023/03/22 08:23:11;;;;;;;81.47;45.50;;;;;;;10.34;84.00;96235.38;5092877;28;20044;-61
2023/03/22 08:25:38;;;;;;;75.65;44.92;;;;;;;10.45;84.22;96236.69;5092955;28;20446;-61
2023/03/22 08:28:07;;;;;;;71.68;44.90;;;;;;;10.55;84.77;96232.78;5092727;28;20494;-61
2023/03/22 08:30:34;;;;;;;67.85;42.97;;;;;;;10.61;84.44;96237.75;5092811;28;20048;-61
2023/03/22 08:33:01;;;;;;;65.97;42.28;;;;;;;10.64;83.71;96246.38;5092781;28;20138;-61
2023/03/22 08:35:28;;;;;;;59.22;38.78;;;;;;;10.63;83.69;96235.06;5093160;28;20048;-61
2023/03/22 08:37:56;;;;;;;54.90;33.42;;;;;;;10.75;83.21;96233.69;5096553;28;20048;-61
2023/03/22 08:40:24;;;;;;;52.28;33.28;;;;;;;10.76;81.94;96237.13;5096683;28;20097;-61
2023/03/22 08:42:51;;;;;;;50.70;33.45;;;;;;;10.92;82.36;96232.94;5096696;28;20044;-61
2023/03/22 08:45:20;;;;;;;42.95;25.85;;;;;;;11.05;80.78;96230.63;5096574;28;20056;-61
2023/03/22 08:47:48;;;;;;;56.45;36.33;;;;;;;11.20;80.39;96229.06;5096495;28;20135;-61
2023/03/22 08:50:15;;;;;;;63.60;41.78;;;;;;;11.25;82.89;96234.97;5096474;28;20113;-61
2023/03/22 08:52:42;;;;;;;65.20;40.80;;;;;;;11.15;82.61;96238.06;5096163;28;20440;-61
2023/03/22 08:55:10;;;;;;;63.22;41.33;;;;;;;11.15;83.37;96238.91;5096414;28;20048;-61
2023/03/22 08:57:37;;;;;;;69.22;41.28;;;;;;;11.25;83.83;96241.97;5096143;28;20051;-61
2023/03/22 09:00:09;;;;;;;60.28;40.75;;;;;;;11.43;84.22;96242.03;5096427;28;20051;-62
2023/03/22 09:02:37;;;;;;;60.83;38.63;;;;;;;11.59;84.38;96245.63;5096306;28;20048;-62
2023/03/22 09:05:05;;;;;;;57.25;36.55;;;;;;;11.80;83.40;96242.09;5096131;28;20044;-61
2023/03/22 09:07:32;;;;;;;58.85;38.00;;;;;;;12.08;81.07;96236.41;5096186;28;20056;-61
2023/03/22 09:10:00;;;;;;;56.00;35.55;;;;;;;12.29;81.68;96238.03;5096211;28;20105;-62
2023/03/22 09:12:28;;;;;;;52.30;34.92;;;;;;;12.36;80.16;96236.78;5096209;28;20111;-61
2023/03/22 09:14:55;;;;;;;58.85;38.63;;;;;;;12.37;79.17;96238.47;5095982;28;20047;-62
2023/03/22 09:17:22;;;;;;;53.05;36.22;;;;;;;12.29;78.75;96238.03;5095844;28;20123;-61
2023/03/22 09:19:51;;;;;;;48.60;33.50;;;;;;;12.41;77.91;96240.03;5096189;28;20044;-62
2023/03/22 09:22:18;;;;;;;47.47;34.22;;;;;;;12.31;78.51;96241.44;5095891;28;20408;-61
2023/03/22 09:24:45;;;;;;;44.95;30.50;;;;;;;12.16;76.85;96233.38;5095680;28;20059;-62
2023/03/22 09:27:12;;;;;;;41.97;27.80;;;;;;;12.22;76.13;96237.50;5095714;28;20402;-61
2023/03/22 09:29:40;;;;;;;39.17;26.83;;;;;;;12.25;76.29;96243.41;5095713;28;20550;-62
2023/03/22 09:32:07;;;;;;;32.15;22.35;;;;;;;12.24;73.42;96244.34;5095698;28;20123;-62
2023/03/22 09:34:34;;;;;;;33.25;20.52;;;;;;;12.31;72.70;96244.06;5095751;28;20063;-62
2023/03/22 09:37:05;;;;;;;26.67;16.95;;;;;;;12.08;66.07;96241.63;5095691;28;20044;-62
2023/03/22 09:39:32;;;;;;;25.90;18.17;;;;;;;11.86;64.93;96258.34;5095703;28;20405;-61
2023/03/22 09:42:02;;;;;;;27.58;18.02;;;;;;;11.59;66.13;96260.53;5095511;28;20044;-61
2023/03/22 09:44:34;;;;;;;30.90;18.92;;;;;;;11.18;66.84;96251.88;5095610;28;20453;-61
2023/03/22 09:47:04;;;;;;;29.88;18.67;;;;;;;11.02;66.44;96258.72;5095211;28;20055;-62
2023/03/22 09:49:36;;;;;;;31.10;18.80;;;;;;;10.94;68.38;96252.06;5095229;28;20048;-61
2023/03/22 09:52:11;;;;;;;23.58;16.73;;;;;;;11.05;67.11;96264.63;5095304;28;20405;-62
2023/03/22 09:54:40;;;;;;;24.20;17.08;;;;;;;11.04;65.76;96260.31;5095438;28;20051;-62
2023/03/22 09:57:17;;;;;;;23.65;14.52;;;;;;;10.95;65.08;96266.81;5095320;28;20044;-61
2023/03/22 09:59:51;;;;;;;24.85;14.30;;;;;;;11.03;65.93;96263.00;5095091;28;20079;-61
2023/03/22 10:02:34;;;;;;;26.40;14.63;;;;;;;11.24;66.84;96262.06;5095218;28;20044;-61
2023/03/22 10:05:12;;;;;;;18.23;12.48;;;;;;;11.10;65.25;96260.06;5095125;28;20479;-61
2023/03/22 10:08:00;;;;;;;21.08;14.07;;;;;;;11.17;67.60;96263.25;5094972;28;20117;-61
2023/03/22 10:10:28;;;;;;;20.75;13.10;;;;;;;11.25;65.12;96265.53;5094916;28;20050;-61
2023/03/22 10:13:00;;;;;;;21.23;13.35;;;;;;;11.30;67.21;96262.69;5095139;28;20044;-61
2023/03/22 10:15:32;;;;;;;16.98;12.15;;;;;;;11.55;64.11;96258.94;5094950;28;20079;-61
2023/03/22 10:18:02;;;;;;;20.38;12.52;;;;;;;11.59;61.61;96261.34;5094739;28;20125;-61
2023/03/22 10:20:37;;;;;;;16.25;11.43;;;;;;;11.80;64.16;96263.06;5094785;28;20451;-61
2023/03/22 10:23:09;;;;;;;23.98;14.10;;;;;;;11.87;64.81;96264.47;5095061;28;20545;-61
2023/03/22 10:25:39;;;;;;;19.15;12.20;;;;;;;12.06;64.75;96253.06;5094775;28;20088;-61
2023/03/22 10:28:15;;;;;;;17.75;11.80;;;;;;;12.17;62.47;96256.06;5094565;28;20408;-61
2023/03/22 10:30:44;;;;;;;19.55;13.45;;;;;;;12.34;63.09;96254.38;5094582;28;20048;-61
2023/03/22 10:33:18;;;;;;;19.10;11.93;;;;;;;12.55;61.48;96257.69;5094503;28;20048;-62
2023/03/22 10:35:46;;;;;;;17.35;13.00;;;;;;;12.46;61.88;96255.56;5094439;28;20056;-61
2023/03/22 10:38:21;;;;;;;14.70;10.65;;;;;;;12.54;60.33;96253.38;5094324;28;20048;-61
2023/03/22 10:40:50;;;;;;;15.45;11.00;;;;;;;12.66;62.09;96248.44;5094392;28;20095;-61
2023/03/22 10:43:22;;;;;;;15.50;10.57;;;;;;;12.88;59.06;96249.03;5094220;28;20054;-61
2023/03/22 10:45:52;;;;;;;21.15;10.48;;;;;;;12.98;58.82;96251.19;5094364;28;20048;-62
2023/03/22 10:48:28;;;;;;;12.07;9.85;;;;;;;13.07;58.39;96241.97;5094564;28;20079;-62
2023/03/22 10:50:57;;;;;;;16.52;10.77;;;;;;;13.16;60.79;96235.38;5093894;28;20135;-61
2023/03/22 10:53:38;;;;;;;20.98;12.88;;;;;;;13.04;59.32;96239.50;5094381;28;20040;-61
2023/03/22 10:56:11;;;;;;;21.83;13.32;;;;;;;12.82;61.57;96232.75;5094146;28;20044;-61
2023/03/22 10:58:38;;;;;;;18.42;12.80;;;;;;;12.91;61.91;96236.69;5093559;28;20051;-62
2023/03/22 11:01:09;;;;;;;18.58;13.25;;;;;;;12.79;61.62;96235.53;5093377;28;20110;-61
2023/03/22 11:03:41;;;;;;;23.58;13.70;;;;;;;12.66;60.45;96238.78;5094330;28;20044;-61
2023/03/22 11:06:11;;;;;;;21.90;12.75;;;;;;;12.24;61.35;96246.13;5094003;28;20474;-62
2023/03/22 11:08:43;;;;;;;18.40;11.38;;;;;;;11.96;62.21;96237.81;5094155;28;20073;-61
2023/03/22 11:11:20;;;;;;;15.15;10.90;;;;;;;11.81;61.04;96238.53;5093888;28;20098;-61
2023/03/22 11:13:53;;;;;;;17.15;9.93;;;;;;;11.92;62.72;96243.28;5094006;28;20078;-61
2023/03/22 11:16:20;;;;;;;11.30;8.35;;;;;;;12.20;60.22;96236.72;5093666;28;20055;-61
2023/03/22 11:18:48;;;;;;;17.33;9.68;;;;;;;12.51;60.70;96219.44;5093643;28;20048;-62
2023/03/22 11:21:17;;;;;;;14.98;9.65;;;;;;;12.65;59.03;96231.84;5093772;28;20123;-61
2023/03/22 11:23:55;;;;;;;17.70;9.88;;;;;;;12.66;60.50;96228.28;5093707;28;20099;-61
2023/03/22 11:26:29;;;;;;;15.27;10.20;;;;;;;12.36;60.02;96235.03;5093586;28;20052;-60
2023/03/22 11:29:16;;;;;;;10.00;7.18;;;;;;;12.10;60.15;96236.31;5093481;28;20439;-63
2023/03/22 11:31:53;;;;;;;7.63;6.10;;;;;;;11.96;56.81;96235.19;5090112;28;20131;-61
2023/03/22 11:34:21;;;;;;;12.40;7.22;;;;;;;11.88;58.21;96230.31;5093429;28;20044;-62
2023/03/22 11:36:55;;;;;;;11.85;7.45;;;;;;;11.94;59.12;96226.53;5093427;28;20117;-61
2023/03/22 11:39:27;;;;;;;9.55;7.22;;;;;;;11.90;61.54;96227.63;5093218;28;20486;-62